sensor_id;sensor_type;location;lat;lon;timestamp;P1;durP1;ratioP1;P2;durP2;ratioP2
13244;SDS011;6689;53.400;12.486;2023-11-19T00:00:06;12.63;;;8.35;;
13244;SDS011;6689;53.400;12.486;2023-11-19T00:02:36;11.52;;;7.90;;
13244;SDS011;6689;53.400;12.486;2023-11-19T00:05:07;13.02;;;8.18;;
13244;SDS011;6689;53.400;12.486;2023-11-19T00:07:36;9.80;;;7.65;;
13244;SDS011;6689;53.400;12.486;2023-11-19T00:10:08;12.68;;;8.63;;
13244;SDS011;6689;53.400;12.486;2023-11-19T00:12:37;11.02;;;7.88;;
13244;SDS011;6689;53.400;12.486;2023-11-19T00:15:05;9.63;;;7.35;;
13244;SDS011;6689;53.400;12.486;2023-11-19T00:17:36;11.00;;;8.27;;
13244;SDS011;6689;53.400;12.486;2023-11-19T00:20:06;12.10;;;8.13;;
13244;SDS011;6689;53.400;12.486;2023-11-19T00:22:34;10.55;;;7.78;;
13244;SDS011;6689;53.400;12.486;2023-11-19T00:25:02;10.02;;;6.47;;
13244;SDS011;6689;53.400;12.486;2023-11-19T00:27:32;11.30;;;7.95;;
13244;SDS011;6689;53.400;12.486;2023-11-19T00:29:59;10.73;;;7.65;;
13244;SDS011;6689;53.400;12.486;2023-11-19T00:32:27;12.25;;;8.27;;
13244;SDS011;6689;53.400;12.486;2023-11-19T00:34:54;11.50;;;8.63;;
13244;SDS011;6689;53.400;12.486;2023-11-19T00:37:21;10.43;;;8.30;;
13244;SDS011;6689;53.400;12.486;2023-11-19T00:39:52;11.52;;;8.45;;
13244;SDS011;6689;53.400;12.486;2023-11-19T00:42:21;11.45;;;7.95;;
13244;SDS011;6689;53.400;12.486;2023-11-19T00:44:50;13.63;;;8.80;;
13244;SDS011;6689;53.400;12.486;2023-11-19T00:47:18;12.63;;;8.93;;
13244;SDS011;6689;53.400;12.486;2023-11-19T00:49:46;12.73;;;8.32;;
13244;SDS011;6689;53.400;12.486;2023-11-19T00:52:15;10.38;;;8.05;;
13244;SDS011;6689;53.400;12.486;2023-11-19T00:54:42;13.35;;;8.70;;
13244;SDS011;6689;53.400;12.486;2023-11-19T00:57:10;14.77;;;9.07;;
13244;SDS011;6689;53.400;12.486;2023-11-19T00:59:37;13.63;;;8.18;;
13244;SDS011;6689;53.400;12.486;2023-11-19T01:02:06;11.80;;;8.75;;
13244;SDS011;6689;53.400;12.486;2023-11-19T01:04:33;13.57;;;8.32;;
13244;SDS011;6689;53.400;12.486;2023-11-19T01:07:03;12.15;;;8.48;;
13244;SDS011;6689;53.400;12.486;2023-11-19T01:09:34;13.30;;;9.00;;
13244;SDS011;6689;53.400;12.486;2023-11-19T01:12:01;14.25;;;8.93;;
13244;SDS011;6689;53.400;12.486;2023-11-19T01:14:39;13.40;;;9.60;;
13244;SDS011;6689;53.400;12.486;2023-11-19T01:17:08;12.02;;;9.32;;
13244;SDS011;6689;53.400;12.486;2023-11-19T01:19:35;13.05;;;9.35;;
13244;SDS011;6689;53.400;12.486;2023-11-19T01:22:04;13.95;;;10.38;;
13244;SDS011;6689;53.400;12.486;2023-11-19T01:24:32;11.63;;;8.75;;
13244;SDS011;6689;53.400;12.486;2023-11-19T01:26:59;13.30;;;9.27;;
13244;SDS011;6689;53.400;12.486;2023-11-19T01:29:26;14.75;;;9.40;;
13244;SDS011;6689;53.400;12.486;2023-11-19T01:31:54;14.13;;;9.20;;
13244;SDS011;6689;53.400;12.486;2023-11-19T01:34:22;15.82;;;9.27;;
13244;SDS011;6689;53.400;12.486;2023-11-19T01:36:50;10.70;;;7.93;;
13244;SDS011;6689;53.400;12.486;2023-11-19T01:39:18;16.52;;;9.68;;
13244;SDS011;6689;53.400;12.486;2023-11-19T01:41:46;15.80;;;9.80;;
13244;SDS011;6689;53.400;12.486;2023-11-19T01:44:13;11.52;;;8.43;;
13244;SDS011;6689;53.400;12.486;2023-11-19T01:46:43;13.20;;;9.18;;
13244;SDS011;6689;53.400;12.486;2023-11-19T01:49:14;15.88;;;9.82;;
13244;SDS011;6689;53.400;12.486;2023-11-19T01:51:45;15.15;;;9.90;;
13244;SDS011;6689;53.400;12.486;2023-11-19T01:54:14;14.93;;;9.85;;
13244;SDS011;6689;53.400;12.486;2023-11-19T01:56:43;15.05;;;9.98;;
13244;SDS011;6689;53.400;12.486;2023-11-19T01:59:11;11.85;;;8.95;;
13244;SDS011;6689;53.400;12.486;2023-11-19T02:01:41;15.13;;;10.38;;
13244;SDS011;6689;53.400;12.486;2023-11-19T02:04:09;13.43;;;9.88;;
13244;SDS011;6689;53.400;12.486;2023-11-19T02:06:39;15.20;;;9.50;;
13244;SDS011;6689;53.400;12.486;2023-11-19T02:09:10;11.80;;;8.23;;
13244;SDS011;6689;53.400;12.486;2023-11-19T02:11:39;12.48;;;9.63;;
13244;SDS011;6689;53.400;12.486;2023-11-19T02:14:07;11.52;;;8.30;;
13244;SDS011;6689;53.400;12.486;2023-11-19T02:16:36;11.68;;;8.45;;
13244;SDS011;6689;53.400;12.486;2023-11-19T02:19:04;12.23;;;8.50;;
13244;SDS011;6689;53.400;12.486;2023-11-19T02:21:34;11.93;;;8.48;;
13244;SDS011;6689;53.400;12.486;2023-11-19T02:24:02;12.82;;;8.18;;
13244;SDS011;6689;53.400;12.486;2023-11-19T02:26:39;13.52;;;9.50;;
13244;SDS011;6689;53.400;12.486;2023-11-19T02:29:13;10.93;;;7.55;;
13244;SDS011;6689;53.400;12.486;2023-11-19T02:31:41;10.05;;;7.95;;
13244;SDS011;6689;53.400;12.486;2023-11-19T02:34:09;12.27;;;8.32;;
13244;SDS011;6689;53.400;12.486;2023-11-19T02:36:41;11.30;;;8.20;;
13244;SDS011;6689;53.400;12.486;2023-11-19T02:39:08;13.43;;;8.95;;
13244;SDS011;6689;53.400;12.486;2023-11-19T02:41:37;11.27;;;7.57;;
13244;SDS011;6689;53.400;12.486;2023-11-19T02:44:05;11.52;;;8.13;;
13244;SDS011;6689;53.400;12.486;2023-11-19T02:46:34;11.13;;;8.45;;
13244;SDS011;6689;53.400;12.486;2023-11-19T02:49:01;11.88;;;8.30;;
13244;SDS011;6689;53.400;12.486;2023-11-19T02:51:31;9.85;;;7.82;;
13244;SDS011;6689;53.400;12.486;2023-11-19T02:53:59;11.55;;;8.25;;
13244;SDS011;6689;53.400;12.486;2023-11-19T02:56:28;9.35;;;7.20;;
13244;SDS011;6689;53.400;12.486;2023-11-19T02:59:02;10.15;;;7.15;;
13244;SDS011;6689;53.400;12.486;2023-11-19T03:01:41;9.27;;;7.15;;
13244;SDS011;6689;53.400;12.486;2023-11-19T03:04:14;11.07;;;7.43;;
13244;SDS011;6689;53.400;12.486;2023-11-19T03:06:45;10.68;;;7.65;;
13244;SDS011;6689;53.400;12.486;2023-11-19T03:09:12;10.63;;;7.30;;
13244;SDS011;6689;53.400;12.486;2023-11-19T03:11:39;11.15;;;8.07;;
13244;SDS011;6689;53.400;12.486;2023-11-19T03:14:07;10.25;;;7.72;;
13244;SDS011;6689;53.400;12.486;2023-11-19T03:16:35;11.07;;;8.00;;
13244;SDS011;6689;53.400;12.486;2023-11-19T03:19:04;11.52;;;8.00;;
13244;SDS011;6689;53.400;12.486;2023-11-19T03:21:31;12.15;;;8.43;;
13244;SDS011;6689;53.400;12.486;2023-11-19T03:23:58;10.07;;;7.43;;
13244;SDS011;6689;53.400;12.486;2023-11-19T03:26:26;12.13;;;7.32;;
13244;SDS011;6689;53.400;12.486;2023-11-19T03:28:55;14.60;;;7.88;;
13244;SDS011;6689;53.400;12.486;2023-11-19T03:31:23;10.10;;;7.75;;
13244;SDS011;6689;53.400;12.486;2023-11-19T03:33:58;10.43;;;7.82;;
13244;SDS011;6689;53.400;12.486;2023-11-19T03:36:33;11.32;;;8.45;;
13244;SDS011;6689;53.400;12.486;2023-11-19T03:39:00;12.05;;;8.13;;
13244;SDS011;6689;53.400;12.486;2023-11-19T03:41:28;11.68;;;8.18;;
13244;SDS011;6689;53.400;12.486;2023-11-19T03:43:56;10.68;;;7.97;;
13244;SDS011;6689;53.400;12.486;2023-11-19T03:46:24;14.02;;;8.70;;
13244;SDS011;6689;53.400;12.486;2023-11-19T03:48:55;12.48;;;7.28;;
13244;SDS011;6689;53.400;12.486;2023-11-19T03:51:23;9.15;;;7.13;;
13244;SDS011;6689;53.400;12.486;2023-11-19T03:53:52;8.93;;;6.70;;
13244;SDS011;6689;53.400;12.486;2023-11-19T03:56:19;9.50;;;7.22;;
13244;SDS011;6689;53.400;12.486;2023-11-19T03:58:47;10.95;;;6.75;;
13244;SDS011;6689;53.400;12.486;2023-11-19T04:01:14;8.45;;;6.97;;
13244;SDS011;6689;53.400;12.486;2023-11-19T04:03:42;7.60;;;6.32;;
13244;SDS011;6689;53.400;12.486;2023-11-19T04:06:09;11.02;;;6.88;;
13244;SDS011;6689;53.400;12.486;2023-11-19T04:08:39;8.57;;;5.70;;
13244;SDS011;6689;53.400;12.486;2023-11-19T04:11:08;11.23;;;7.03;;
13244;SDS011;6689;53.400;12.486;2023-11-19T04:13:35;10.48;;;6.85;;
13244;SDS011;6689;53.400;12.486;2023-11-19T04:16:02;9.38;;;6.47;;
13244;SDS011;6689;53.400;12.486;2023-11-19T04:18:30;8.52;;;6.03;;
13244;SDS011;6689;53.400;12.486;2023-11-19T04:20:58;9.90;;;6.57;;
13244;SDS011;6689;53.400;12.486;2023-11-19T04:23:27;8.00;;;5.88;;
13244;SDS011;6689;53.400;12.486;2023-11-19T04:25:54;7.75;;;6.00;;
13244;SDS011;6689;53.400;12.486;2023-11-19T04:28:23;7.03;;;5.95;;
13244;SDS011;6689;53.400;12.486;2023-11-19T04:30:52;7.50;;;5.88;;
13244;SDS011;6689;53.400;12.486;2023-11-19T04:33:19;10.13;;;6.07;;
13244;SDS011;6689;53.400;12.486;2023-11-19T04:35:46;8.75;;;5.68;;
13244;SDS011;6689;53.400;12.486;2023-11-19T04:38:14;5.80;;;4.55;;
13244;SDS011;6689;53.400;12.486;2023-11-19T04:40:41;8.73;;;4.90;;
13244;SDS011;6689;53.400;12.486;2023-11-19T04:43:10;6.68;;;4.90;;
13244;SDS011;6689;53.400;12.486;2023-11-19T04:45:40;5.70;;;3.95;;
13244;SDS011;6689;53.400;12.486;2023-11-19T04:48:07;7.35;;;4.82;;
13244;SDS011;6689;53.400;12.486;2023-11-19T04:50:35;6.97;;;4.60;;
13244;SDS011;6689;53.400;12.486;2023-11-19T04:53:02;5.68;;;3.17;;
13244;SDS011;6689;53.400;12.486;2023-11-19T04:55:30;5.80;;;4.15;;
13244;SDS011;6689;53.400;12.486;2023-11-19T04:57:57;4.90;;;3.67;;
13244;SDS011;6689;53.400;12.486;2023-11-19T05:00:25;5.40;;;4.10;;
13244;SDS011;6689;53.400;12.486;2023-11-19T05:02:54;4.43;;;3.33;;
13244;SDS011;6689;53.400;12.486;2023-11-19T05:05:21;5.47;;;3.90;;
13244;SDS011;6689;53.400;12.486;2023-11-19T05:07:48;3.78;;;3.05;;
13244;SDS011;6689;53.400;12.486;2023-11-19T05:10:15;6.30;;;3.08;;
13244;SDS011;6689;53.400;12.486;2023-11-19T05:12:44;3.83;;;2.83;;
13244;SDS011;6689;53.400;12.486;2023-11-19T05:15:11;4.25;;;2.97;;
13244;SDS011;6689;53.400;12.486;2023-11-19T05:17:40;4.38;;;3.55;;
13244;SDS011;6689;53.400;12.486;2023-11-19T05:20:09;4.38;;;3.53;;
13244;SDS011;6689;53.400;12.486;2023-11-19T05:22:38;4.72;;;2.90;;
13244;SDS011;6689;53.400;12.486;2023-11-19T05:25:06;4.32;;;3.00;;
13244;SDS011;6689;53.400;12.486;2023-11-19T05:27:35;5.55;;;3.35;;
13244;SDS011;6689;53.400;12.486;2023-11-19T05:30:04;3.65;;;2.92;;
13244;SDS011;6689;53.400;12.486;2023-11-19T05:32:32;3.80;;;2.53;;
13244;SDS011;6689;53.400;12.486;2023-11-19T05:35:00;3.53;;;2.58;;
13244;SDS011;6689;53.400;12.486;2023-11-19T05:37:29;3.72;;;2.45;;
13244;SDS011;6689;53.400;12.486;2023-11-19T05:40:00;3.85;;;2.42;;
13244;SDS011;6689;53.400;12.486;2023-11-19T05:42:29;3.70;;;2.40;;
13244;SDS011;6689;53.400;12.486;2023-11-19T05:44:56;3.38;;;2.33;;
13244;SDS011;6689;53.400;12.486;2023-11-19T05:47:26;4.45;;;2.83;;
13244;SDS011;6689;53.400;12.486;2023-11-19T05:49:53;6.10;;;3.42;;
13244;SDS011;6689;53.400;12.486;2023-11-19T05:52:21;3.42;;;2.80;;
13244;SDS011;6689;53.400;12.486;2023-11-19T05:54:50;3.97;;;2.70;;
13244;SDS011;6689;53.400;12.486;2023-11-19T05:57:18;3.80;;;2.60;;
13244;SDS011;6689;53.400;12.486;2023-11-19T05:59:48;3.72;;;2.92;;
13244;SDS011;6689;53.400;12.486;2023-11-19T06:02:16;3.78;;;2.70;;
13244;SDS011;6689;53.400;12.486;2023-11-19T06:04:43;3.60;;;2.83;;
13244;SDS011;6689;53.400;12.486;2023-11-19T06:07:13;3.28;;;2.25;;
13244;SDS011;6689;53.400;12.486;2023-11-19T06:09:40;4.65;;;3.25;;
13244;SDS011;6689;53.400;12.486;2023-11-19T06:12:09;4.00;;;2.15;;
13244;SDS011;6689;53.400;12.486;2023-11-19T06:14:37;5.85;;;2.00;;
13244;SDS011;6689;53.400;12.486;2023-11-19T06:17:04;3.42;;;2.63;;
13244;SDS011;6689;53.400;12.486;2023-11-19T06:19:33;3.25;;;1.90;;
13244;SDS011;6689;53.400;12.486;2023-11-19T06:22:01;2.03;;;1.50;;
13244;SDS011;6689;53.400;12.486;2023-11-19T06:24:30;2.65;;;1.80;;
13244;SDS011;6689;53.400;12.486;2023-11-19T06:26:57;4.40;;;1.90;;
13244;SDS011;6689;53.400;12.486;2023-11-19T06:29:27;2.72;;;1.77;;
13244;SDS011;6689;53.400;12.486;2023-11-19T06:31:54;3.55;;;2.03;;
13244;SDS011;6689;53.400;12.486;2023-11-19T06:34:22;3.22;;;1.90;;
13244;SDS011;6689;53.400;12.486;2023-11-19T06:36:49;2.65;;;1.67;;
13244;SDS011;6689;53.400;12.486;2023-11-19T06:39:17;2.25;;;1.73;;
13244;SDS011;6689;53.400;12.486;2023-11-19T06:41:45;2.42;;;1.75;;
13244;SDS011;6689;53.400;12.486;2023-11-19T06:44:14;2.70;;;1.85;;
13244;SDS011;6689;53.400;12.486;2023-11-19T06:46:43;2.90;;;1.80;;
13244;SDS011;6689;53.400;12.486;2023-11-19T06:49:10;3.15;;;1.88;;
13244;SDS011;6689;53.400;12.486;2023-11-19T06:51:41;2.70;;;1.60;;
13244;SDS011;6689;53.400;12.486;2023-11-19T06:54:11;2.97;;;2.05;;
13244;SDS011;6689;53.400;12.486;2023-11-19T06:56:39;2.70;;;1.52;;
13244;SDS011;6689;53.400;12.486;2023-11-19T06:59:06;3.50;;;2.08;;
13244;SDS011;6689;53.400;12.486;2023-11-19T07:01:35;2.05;;;1.60;;
13244;SDS011;6689;53.400;12.486;2023-11-19T07:04:04;2.83;;;1.80;;
13244;SDS011;6689;53.400;12.486;2023-11-19T07:06:34;2.65;;;1.85;;
13244;SDS011;6689;53.400;12.486;2023-11-19T07:09:02;2.20;;;1.50;;
13244;SDS011;6689;53.400;12.486;2023-11-19T07:11:36;2.55;;;1.75;;
13244;SDS011;6689;53.400;12.486;2023-11-19T07:14:04;3.35;;;2.17;;
13244;SDS011;6689;53.400;12.486;2023-11-19T07:16:32;3.05;;;1.65;;
13244;SDS011;6689;53.400;12.486;2023-11-19T07:19:03;7.25;;;2.10;;
13244;SDS011;6689;53.400;12.486;2023-11-19T07:21:31;2.97;;;1.95;;
13244;SDS011;6689;53.400;12.486;2023-11-19T07:23:59;2.70;;;1.80;;
13244;SDS011;6689;53.400;12.486;2023-11-19T07:26:27;3.08;;;2.22;;
13244;SDS011;6689;53.400;12.486;2023-11-19T07:28:54;2.85;;;1.90;;
13244;SDS011;6689;53.400;12.486;2023-11-19T07:31:21;4.65;;;1.90;;
13244;SDS011;6689;53.400;12.486;2023-11-19T07:33:49;3.85;;;2.10;;
13244;SDS011;6689;53.400;12.486;2023-11-19T07:36:18;3.05;;;2.08;;
13244;SDS011;6689;53.400;12.486;2023-11-19T07:38:45;2.28;;;1.67;;
13244;SDS011;6689;53.400;12.486;2023-11-19T07:41:12;2.65;;;1.88;;
13244;SDS011;6689;53.400;12.486;2023-11-19T07:43:40;2.45;;;1.77;;
13244;SDS011;6689;53.400;12.486;2023-11-19T07:46:12;4.28;;;1.55;;
13244;SDS011;6689;53.400;12.486;2023-11-19T07:48:40;2.75;;;1.67;;
13244;SDS011;6689;53.400;12.486;2023-11-19T07:51:12;2.50;;;1.75;;
13244;SDS011;6689;53.400;12.486;2023-11-19T07:53:41;2.92;;;2.13;;
13244;SDS011;6689;53.400;12.486;2023-11-19T07:56:09;2.65;;;1.75;;
13244;SDS011;6689;53.400;12.486;2023-11-19T07:58:37;3.38;;;2.40;;
13244;SDS011;6689;53.400;12.486;2023-11-19T08:01:05;4.05;;;2.60;;
13244;SDS011;6689;53.400;12.486;2023-11-19T08:03:33;3.30;;;2.20;;
13244;SDS011;6689;53.400;12.486;2023-11-19T08:06:00;9.02;;;2.85;;
13244;SDS011;6689;53.400;12.486;2023-11-19T08:08:28;4.75;;;3.20;;
13244;SDS011;6689;53.400;12.486;2023-11-19T08:10:59;4.22;;;3.20;;
13244;SDS011;6689;53.400;12.486;2023-11-19T08:13:26;3.90;;;2.80;;
13244;SDS011;6689;53.400;12.486;2023-11-19T08:15:53;6.25;;;2.70;;
13244;SDS011;6689;53.400;12.486;2023-11-19T08:18:20;3.75;;;2.80;;
13244;SDS011;6689;53.400;12.486;2023-11-19T08:20:48;3.95;;;2.60;;
13244;SDS011;6689;53.400;12.486;2023-11-19T08:23:18;3.88;;;2.38;;
13244;SDS011;6689;53.400;12.486;2023-11-19T08:25:45;4.07;;;2.85;;
13244;SDS011;6689;53.400;12.486;2023-11-19T08:28:15;6.78;;;3.13;;
13244;SDS011;6689;53.400;12.486;2023-11-19T08:30:42;6.63;;;3.28;;
13244;SDS011;6689;53.400;12.486;2023-11-19T08:33:10;6.97;;;4.20;;
13244;SDS011;6689;53.400;12.486;2023-11-19T08:35:37;8.93;;;4.60;;
13244;SDS011;6689;53.400;12.486;2023-11-19T08:38:04;11.40;;;4.40;;
13244;SDS011;6689;53.400;12.486;2023-11-19T08:40:32;10.20;;;5.28;;
13244;SDS011;6689;53.400;12.486;2023-11-19T08:43:02;7.63;;;4.95;;
13244;SDS011;6689;53.400;12.486;2023-11-19T08:45:31;11.18;;;5.38;;
13244;SDS011;6689;53.400;12.486;2023-11-19T08:48:00;12.40;;;6.15;;
13244;SDS011;6689;53.400;12.486;2023-11-19T08:50:27;9.43;;;5.63;;
13244;SDS011;6689;53.400;12.486;2023-11-19T08:52:55;8.50;;;5.50;;
13244;SDS011;6689;53.400;12.486;2023-11-19T08:55:22;11.32;;;7.13;;
13244;SDS011;6689;53.400;12.486;2023-11-19T08:57:51;13.07;;;7.32;;
13244;SDS011;6689;53.400;12.486;2023-11-19T09:00:18;18.20;;;7.55;;
13244;SDS011;6689;53.400;12.486;2023-11-19T09:02:47;12.48;;;7.13;;
13244;SDS011;6689;53.400;12.486;2023-11-19T09:05:15;16.67;;;8.15;;
13244;SDS011;6689;53.400;12.486;2023-11-19T09:07:42;15.77;;;7.22;;
13244;SDS011;6689;53.400;12.486;2023-11-19T09:10:10;13.77;;;8.05;;
13244;SDS011;6689;53.400;12.486;2023-11-19T09:12:38;15.57;;;8.20;;
13244;SDS011;6689;53.400;12.486;2023-11-19T09:15:05;17.73;;;6.93;;
13244;SDS011;6689;53.400;12.486;2023-11-19T09:17:36;14.85;;;7.90;;
13244;SDS011;6689;53.400;12.486;2023-11-19T09:20:06;19.40;;;8.85;;
13244;SDS011;6689;53.400;12.486;2023-11-19T09:22:37;15.23;;;8.07;;
13244;SDS011;6689;53.400;12.486;2023-11-19T09:25:04;23.83;;;10.07;;
13244;SDS011;6689;53.400;12.486;2023-11-19T09:27:32;17.88;;;8.63;;
13244;SDS011;6689;53.400;12.486;2023-11-19T09:29:59;18.38;;;8.98;;
13244;SDS011;6689;53.400;12.486;2023-11-19T09:32:26;20.50;;;9.63;;
13244;SDS011;6689;53.400;12.486;2023-11-19T09:34:54;18.15;;;9.07;;
13244;SDS011;6689;53.400;12.486;2023-11-19T09:37:24;26.25;;;10.00;;
13244;SDS011;6689;53.400;12.486;2023-11-19T09:39:51;20.23;;;9.15;;
13244;SDS011;6689;53.400;12.486;2023-11-19T09:42:19;18.13;;;9.98;;
13244;SDS011;6689;53.400;12.486;2023-11-19T09:44:46;20.45;;;9.85;;
13244;SDS011;6689;53.400;12.486;2023-11-19T09:47:16;18.45;;;9.02;;
13244;SDS011;6689;53.400;12.486;2023-11-19T09:49:47;18.85;;;9.88;;
13244;SDS011;6689;53.400;12.486;2023-11-19T09:52:16;20.33;;;9.52;;
13244;SDS011;6689;53.400;12.486;2023-11-19T09:54:44;21.40;;;10.15;;
13244;SDS011;6689;53.400;12.486;2023-11-19T09:57:14;19.08;;;10.55;;
13244;SDS011;6689;53.400;12.486;2023-11-19T09:59:43;22.77;;;10.77;;
13244;SDS011;6689;53.400;12.486;2023-11-19T10:02:12;17.45;;;10.05;;
13244;SDS011;6689;53.400;12.486;2023-11-19T10:04:40;21.60;;;10.38;;
13244;SDS011;6689;53.400;12.486;2023-11-19T10:07:10;22.23;;;9.80;;
13244;SDS011;6689;53.400;12.486;2023-11-19T10:09:38;17.27;;;9.27;;
13244;SDS011;6689;53.400;12.486;2023-11-19T10:12:08;23.25;;;10.75;;
13244;SDS011;6689;53.400;12.486;2023-11-19T10:14:36;26.48;;;10.90;;
13244;SDS011;6689;53.400;12.486;2023-11-19T10:17:07;21.73;;;10.70;;
13244;SDS011;6689;53.400;12.486;2023-11-19T10:19:34;15.88;;;9.70;;
13244;SDS011;6689;53.400;12.486;2023-11-19T10:22:04;20.65;;;11.07;;
13244;SDS011;6689;53.400;12.486;2023-11-19T10:24:32;18.27;;;10.75;;
13244;SDS011;6689;53.400;12.486;2023-11-19T10:27:01;17.00;;;10.10;;
13244;SDS011;6689;53.400;12.486;2023-11-19T10:29:30;19.52;;;10.25;;
13244;SDS011;6689;53.400;12.486;2023-11-19T10:31:58;21.67;;;10.93;;
13244;SDS011;6689;53.400;12.486;2023-11-19T10:34:26;21.58;;;10.25;;
13244;SDS011;6689;53.400;12.486;2023-11-19T10:36:55;23.02;;;10.07;;
13244;SDS011;6689;53.400;12.486;2023-11-19T10:39:22;22.98;;;10.65;;
13244;SDS011;6689;53.400;12.486;2023-11-19T10:41:50;22.08;;;10.13;;
13244;SDS011;6689;53.400;12.486;2023-11-19T10:47:10;19.63;;;8.90;;
13244;SDS011;6689;53.400;12.486;2023-11-19T10:49:38;30.02;;;9.73;;
13244;SDS011;6689;53.400;12.486;2023-11-19T10:52:05;30.55;;;9.18;;
13244;SDS011;6689;53.400;12.486;2023-11-19T10:54:37;24.80;;;9.30;;
13244;SDS011;6689;53.400;12.486;2023-11-19T10:57:12;17.80;;;7.95;;
13244;SDS011;6689;53.400;12.486;2023-11-19T10:59:47;22.00;;;7.68;;
13244;SDS011;6689;53.400;12.486;2023-11-19T11:02:18;19.83;;;9.00;;
13244;SDS011;6689;53.400;12.486;2023-11-19T11:04:51;17.80;;;6.88;;
13244;SDS011;6689;53.400;12.486;2023-11-19T11:07:21;26.85;;;8.38;;
13244;SDS011;6689;53.400;12.486;2023-11-19T11:09:51;20.80;;;7.07;;
13244;SDS011;6689;53.400;12.486;2023-11-19T11:12:21;16.02;;;7.22;;
13244;SDS011;6689;53.400;12.486;2023-11-19T11:14:52;23.92;;;6.70;;
13244;SDS011;6689;53.400;12.486;2023-11-19T11:17:21;19.98;;;7.03;;
13244;SDS011;6689;53.400;12.486;2023-11-19T11:19:56;19.83;;;6.75;;
13244;SDS011;6689;53.400;12.486;2023-11-19T11:22:24;24.58;;;7.25;;
13244;SDS011;6689;53.400;12.486;2023-11-19T11:25:00;21.05;;;6.30;;
13244;SDS011;6689;53.400;12.486;2023-11-19T11:30:53;22.52;;;6.07;;
13244;SDS011;6689;53.400;12.486;2023-11-19T11:33:34;23.63;;;6.18;;
13244;SDS011;6689;53.400;12.486;2023-11-19T11:36:11;25.40;;;6.93;;
13244;SDS011;6689;53.400;12.486;2023-11-19T11:38:46;21.13;;;5.15;;
13244;SDS011;6689;53.400;12.486;2023-11-19T11:41:15;21.98;;;6.00;;
13244;SDS011;6689;53.400;12.486;2023-11-19T11:43:46;22.65;;;5.07;;
13244;SDS011;6689;53.400;12.486;2023-11-19T11:49:27;25.77;;;7.05;;
13244;SDS011;6689;53.400;12.486;2023-11-19T11:51:58;24.70;;;5.47;;
13244;SDS011;6689;53.400;12.486;2023-11-19T11:54:28;20.25;;;5.63;;
13244;SDS011;6689;53.400;12.486;2023-11-19T11:57:01;22.83;;;5.50;;
13244;SDS011;6689;53.400;12.486;2023-11-19T11:59:48;25.00;;;5.82;;
13244;SDS011;6689;53.400;12.486;2023-11-19T12:02:16;24.48;;;5.30;;
13244;SDS011;6689;53.400;12.486;2023-11-19T12:04:49;20.60;;;4.40;;
13244;SDS011;6689;53.400;12.486;2023-11-19T12:07:18;28.00;;;4.78;;
13244;SDS011;6689;53.400;12.486;2023-11-19T12:09:51;21.15;;;5.38;;
13244;SDS011;6689;53.400;12.486;2023-11-19T12:12:25;17.05;;;5.30;;
13244;SDS011;6689;53.400;12.486;2023-11-19T12:15:05;21.55;;;4.45;;
13244;SDS011;6689;53.400;12.486;2023-11-19T12:17:36;25.48;;;4.40;;
13244;SDS011;6689;53.400;12.486;2023-11-19T12:20:11;23.48;;;6.03;;
13244;SDS011;6689;53.400;12.486;2023-11-19T12:22:38;25.00;;;5.70;;
13244;SDS011;6689;53.400;12.486;2023-11-19T12:25:08;28.00;;;4.88;;
13244;SDS011;6689;53.400;12.486;2023-11-19T12:27:39;28.38;;;5.45;;
13244;SDS011;6689;53.400;12.486;2023-11-19T12:30:08;27.50;;;5.68;;
13244;SDS011;6689;53.400;12.486;2023-11-19T12:32:39;21.70;;;5.28;;
13244;SDS011;6689;53.400;12.486;2023-11-19T12:35:11;21.50;;;5.65;;
13244;SDS011;6689;53.400;12.486;2023-11-19T12:37:39;29.80;;;7.32;;
13244;SDS011;6689;53.400;12.486;2023-11-19T12:40:12;25.98;;;5.18;;
13244;SDS011;6689;53.400;12.486;2023-11-19T12:42:42;23.13;;;4.22;;
13244;SDS011;6689;53.400;12.486;2023-11-19T12:45:11;31.90;;;5.55;;
13244;SDS011;6689;53.400;12.486;2023-11-19T12:47:39;25.73;;;5.07;;
13244;SDS011;6689;53.400;12.486;2023-11-19T12:50:07;21.08;;;6.57;;
13244;SDS011;6689;53.400;12.486;2023-11-19T12:52:38;23.83;;;4.80;;
13244;SDS011;6689;53.400;12.486;2023-11-19T12:55:06;24.60;;;6.25;;
13244;SDS011;6689;53.400;12.486;2023-11-19T12:57:52;18.88;;;4.65;;
13244;SDS011;6689;53.400;12.486;2023-11-19T13:00:20;20.77;;;5.15;;
13244;SDS011;6689;53.400;12.486;2023-11-19T13:02:49;29.20;;;4.95;;
13244;SDS011;6689;53.400;12.486;2023-11-19T13:08:05;17.67;;;4.72;;
13244;SDS011;6689;53.400;12.486;2023-11-19T13:10:49;22.85;;;4.65;;
13244;SDS011;6689;53.400;12.486;2023-11-19T13:13:18;22.55;;;5.53;;
13244;SDS011;6689;53.400;12.486;2023-11-19T13:15:47;17.58;;;4.75;;
13244;SDS011;6689;53.400;12.486;2023-11-19T13:18:15;25.27;;;4.43;;
13244;SDS011;6689;53.400;12.486;2023-11-19T13:20:45;25.45;;;4.60;;
13244;SDS011;6689;53.400;12.486;2023-11-19T13:23:12;21.42;;;4.43;;
13244;SDS011;6689;53.400;12.486;2023-11-19T13:25:41;18.88;;;4.80;;
13244;SDS011;6689;53.400;12.486;2023-11-19T13:28:08;25.90;;;5.78;;
13244;SDS011;6689;53.400;12.486;2023-11-19T13:30:36;24.20;;;5.78;;
13244;SDS011;6689;53.400;12.486;2023-11-19T13:33:03;26.38;;;5.00;;
13244;SDS011;6689;53.400;12.486;2023-11-19T13:35:31;24.42;;;6.13;;
13244;SDS011;6689;53.400;12.486;2023-11-19T13:37:59;27.70;;;4.78;;
13244;SDS011;6689;53.400;12.486;2023-11-19T13:40:27;22.15;;;4.53;;
13244;SDS011;6689;53.400;12.486;2023-11-19T13:42:55;26.55;;;4.82;;
13244;SDS011;6689;53.400;12.486;2023-11-19T13:45:22;19.02;;;4.15;;
13244;SDS011;6689;53.400;12.486;2023-11-19T13:47:50;20.08;;;5.22;;
13244;SDS011;6689;53.400;12.486;2023-11-19T13:50:17;14.95;;;4.88;;
13244;SDS011;6689;53.400;12.486;2023-11-19T13:52:45;21.98;;;4.35;;
13244;SDS011;6689;53.400;12.486;2023-11-19T13:55:23;22.33;;;4.43;;
13244;SDS011;6689;53.400;12.486;2023-11-19T13:57:50;24.00;;;5.45;;
13244;SDS011;6689;53.400;12.486;2023-11-19T14:00:17;22.00;;;4.90;;
13244;SDS011;6689;53.400;12.486;2023-11-19T14:02:47;15.32;;;3.78;;
13244;SDS011;6689;53.400;12.486;2023-11-19T14:05:14;17.20;;;4.03;;
13244;SDS011;6689;53.400;12.486;2023-11-19T14:07:43;19.92;;;3.70;;
13244;SDS011;6689;53.400;12.486;2023-11-19T14:10:13;20.55;;;3.72;;
13244;SDS011;6689;53.400;12.486;2023-11-19T14:12:42;20.55;;;3.85;;
13244;SDS011;6689;53.400;12.486;2023-11-19T14:15:10;19.92;;;4.10;;
13244;SDS011;6689;53.400;12.486;2023-11-19T14:17:39;22.73;;;3.90;;
13244;SDS011;6689;53.400;12.486;2023-11-19T14:20:07;22.17;;;5.15;;
13244;SDS011;6689;53.400;12.486;2023-11-19T14:22:38;17.50;;;3.35;;
13244;SDS011;6689;53.400;12.486;2023-11-19T14:25:06;11.50;;;3.38;;
13244;SDS011;6689;53.400;12.486;2023-11-19T14:27:35;22.40;;;4.60;;
13244;SDS011;6689;53.400;12.486;2023-11-19T14:30:06;16.73;;;3.45;;
13244;SDS011;6689;53.400;12.486;2023-11-19T14:32:36;21.48;;;4.50;;
13244;SDS011;6689;53.400;12.486;2023-11-19T14:35:04;14.68;;;3.90;;
13244;SDS011;6689;53.400;12.486;2023-11-19T14:37:32;20.40;;;4.05;;
13244;SDS011;6689;53.400;12.486;2023-11-19T14:40:00;19.40;;;3.95;;
13244;SDS011;6689;53.400;12.486;2023-11-19T14:42:29;19.40;;;4.03;;
13244;SDS011;6689;53.400;12.486;2023-11-19T14:44:56;12.02;;;2.92;;
13244;SDS011;6689;53.400;12.486;2023-11-19T14:47:25;18.00;;;3.50;;
13244;SDS011;6689;53.400;12.486;2023-11-19T14:49:54;15.82;;;3.92;;
13244;SDS011;6689;53.400;12.486;2023-11-19T14:52:21;19.90;;;4.75;;
13244;SDS011;6689;53.400;12.486;2023-11-19T14:54:49;14.77;;;3.63;;
13244;SDS011;6689;53.400;12.486;2023-11-19T14:57:19;17.75;;;4.05;;
13244;SDS011;6689;53.400;12.486;2023-11-19T14:59:45;13.45;;;4.03;;